sensor_id;sensor_type;location;lat;lon;timestamp;P1;durP1;ratioP1;P2;durP2;ratioP2
10430;SDS011;5262;59.958;17.726;2022-09-01T00:02:00;2.83;;;0.80;;
10430;SDS011;5262;59.958;17.726;2022-09-01T00:04:30;1.60;;;0.90;;
10430;SDS011;5262;59.958;17.726;2022-09-01T00:06:56;1.90;;;1.10;;
10430;SDS011;5262;59.958;17.726;2022-09-01T00:09:23;1.73;;;1.10;;
10430;SDS011;5262;59.958;17.726;2022-09-01T00:11:51;1.80;;;1.10;;
10430;SDS011;5262;59.958;17.726;2022-09-01T00:14:20;2.10;;;0.90;;
10430;SDS011;5262;59.958;17.726;2022-09-01T00:16:48;2.70;;;1.23;;
10430;SDS011;5262;59.958;17.726;2022-09-01T00:19:13;1.20;;;0.90;;
10430;SDS011;5262;59.958;17.726;2022-09-01T00:21:40;2.20;;;1.10;;
10430;SDS011;5262;59.958;17.726;2022-09-01T00:24:08;1.47;;;1.10;;
10430;SDS011;5262;59.958;17.726;2022-09-01T00:26:34;2.30;;;0.80;;
10430;SDS011;5262;59.958;17.726;2022-09-01T00:29:00;1.70;;;0.93;;
10430;SDS011;5262;59.958;17.726;2022-09-01T00:31:27;1.27;;;1.10;;
10430;SDS011;5262;59.958;17.726;2022-09-01T00:33:53;1.17;;;0.90;;
10430;SDS011;5262;59.958;17.726;2022-09-01T00:36:19;2.40;;;0.90;;
10430;SDS011;5262;59.958;17.726;2022-09-01T00:38:45;3.27;;;0.80;;
10430;SDS011;5262;59.958;17.726;2022-09-01T00:41:12;1.10;;;0.70;;
10430;SDS011;5262;59.958;17.726;2022-09-01T00:46:11;1.43;;;0.87;;
10430;SDS011;5262;59.958;17.726;2022-09-01T00:48:42;1.63;;;0.80;;
10430;SDS011;5262;59.958;17.726;2022-09-01T00:51:09;1.10;;;0.80;;
10430;SDS011;5262;59.958;17.726;2022-09-01T00:53:37;0.80;;;0.70;;
10430;SDS011;5262;59.958;17.726;2022-09-01T00:56:05;2.07;;;0.90;;
10430;SDS011;5262;59.958;17.726;2022-09-01T00:58:32;2.13;;;1.00;;
10430;SDS011;5262;59.958;17.726;2022-09-01T01:01:00;1.03;;;0.80;;
10430;SDS011;5262;59.958;17.726;2022-09-01T01:03:26;1.13;;;0.90;;
10430;SDS011;5262;59.958;17.726;2022-09-01T01:05:54;2.07;;;1.00;;
10430;SDS011;5262;59.958;17.726;2022-09-01T01:08:29;0.73;;;0.67;;
10430;SDS011;5262;59.958;17.726;2022-09-01T01:10:58;12.10;;;1.17;;
10430;SDS011;5262;59.958;17.726;2022-09-01T01:13:29;2.37;;;1.00;;
10430;SDS011;5262;59.958;17.726;2022-09-01T01:16:00;1.40;;;0.70;;
10430;SDS011;5262;59.958;17.726;2022-09-01T01:18:27;3.70;;;0.80;;
10430;SDS011;5262;59.958;17.726;2022-09-01T01:21:01;2.50;;;0.80;;
10430;SDS011;5262;59.958;17.726;2022-09-01T01:24:38;1.93;;;0.80;;
10430;SDS011;5262;59.958;17.726;2022-09-01T01:26:44;2.17;;;0.90;;
10430;SDS011;5262;59.958;17.726;2022-09-01T01:29:11;1.80;;;1.10;;
10430;SDS011;5262;59.958;17.726;2022-09-01T01:31:37;3.10;;;0.97;;
10430;SDS011;5262;59.958;17.726;2022-09-01T01:34:03;1.43;;;0.77;;
10430;SDS011;5262;59.958;17.726;2022-09-01T01:36:32;3.03;;;0.67;;
10430;SDS011;5262;59.958;17.726;2022-09-01T01:39:10;1.80;;;1.00;;
10430;SDS011;5262;59.958;17.726;2022-09-01T01:41:41;0.80;;;0.70;;
10430;SDS011;5262;59.958;17.726;2022-09-01T01:44:10;1.23;;;0.83;;
10430;SDS011;5262;59.958;17.726;2022-09-01T01:46:42;1.17;;;0.70;;
10430;SDS011;5262;59.958;17.726;2022-09-01T01:49:12;3.80;;;0.87;;
10430;SDS011;5262;59.958;17.726;2022-09-01T01:51:43;1.60;;;0.83;;
10430;SDS011;5262;59.958;17.726;2022-09-01T01:54:11;1.27;;;0.67;;
10430;SDS011;5262;59.958;17.726;2022-09-01T01:56:37;3.10;;;0.90;;
10430;SDS011;5262;59.958;17.726;2022-09-01T01:59:06;1.90;;;0.70;;
10430;SDS011;5262;59.958;17.726;2022-09-01T02:01:39;0.90;;;0.60;;
10430;SDS011;5262;59.958;17.726;2022-09-01T02:04:07;1.27;;;0.80;;
10430;SDS011;5262;59.958;17.726;2022-09-01T02:06:35;1.87;;;1.00;;
10430;SDS011;5262;59.958;17.726;2022-09-01T02:09:05;1.80;;;0.93;;
10430;SDS011;5262;59.958;17.726;2022-09-01T02:11:32;1.10;;;0.87;;
10430;SDS011;5262;59.958;17.726;2022-09-01T02:14:02;1.93;;;0.70;;
10430;SDS011;5262;59.958;17.726;2022-09-01T02:16:31;0.90;;;0.83;;
10430;SDS011;5262;59.958;17.726;2022-09-01T02:18:58;2.23;;;0.80;;
10430;SDS011;5262;59.958;17.726;2022-09-01T02:21:25;1.00;;;0.60;;
10430;SDS011;5262;59.958;17.726;2022-09-01T02:23:55;0.93;;;0.83;;
10430;SDS011;5262;59.958;17.726;2022-09-01T02:26:30;1.00;;;0.70;;
10430;SDS011;5262;59.958;17.726;2022-09-01T02:29:05;2.63;;;1.10;;
10430;SDS011;5262;59.958;17.726;2022-09-01T02:31:42;3.33;;;0.90;;
10430;SDS011;5262;59.958;17.726;2022-09-01T02:34:09;1.40;;;0.97;;
10430;SDS011;5262;59.958;17.726;2022-09-01T02:36:38;1.97;;;1.00;;
10430;SDS011;5262;59.958;17.726;2022-09-01T02:39:08;2.33;;;1.30;;
10430;SDS011;5262;59.958;17.726;2022-09-01T02:41:35;1.20;;;1.10;;
10430;SDS011;5262;59.958;17.726;2022-09-01T02:44:02;1.13;;;0.63;;
10430;SDS011;5262;59.958;17.726;2022-09-01T02:46:35;1.07;;;0.97;;
10430;SDS011;5262;59.958;17.726;2022-09-01T02:49:11;2.53;;;1.07;;
10430;SDS011;5262;59.958;17.726;2022-09-01T02:51:48;1.53;;;1.00;;
10430;SDS011;5262;59.958;17.726;2022-09-01T02:54:18;1.30;;;1.20;;
10430;SDS011;5262;59.958;17.726;2022-09-01T02:56:47;1.10;;;0.93;;
10430;SDS011;5262;59.958;17.726;2022-09-01T02:59:18;2.43;;;0.90;;
10430;SDS011;5262;59.958;17.726;2022-09-01T03:01:46;1.37;;;1.07;;
10430;SDS011;5262;59.958;17.726;2022-09-01T03:04:16;0.93;;;0.70;;
10430;SDS011;5262;59.958;17.726;2022-09-01T03:06:42;0.90;;;0.70;;
10430;SDS011;5262;59.958;17.726;2022-09-01T03:09:10;2.77;;;1.10;;
10430;SDS011;5262;59.958;17.726;2022-09-01T03:11:39;1.23;;;0.87;;
10430;SDS011;5262;59.958;17.726;2022-09-01T03:14:07;1.00;;;0.90;;
10430;SDS011;5262;59.958;17.726;2022-09-01T03:16:35;0.80;;;0.70;;
10430;SDS011;5262;59.958;17.726;2022-09-01T03:19:03;1.07;;;0.70;;
10430;SDS011;5262;59.958;17.726;2022-09-01T03:21:33;1.07;;;0.70;;
10430;SDS011;5262;59.958;17.726;2022-09-01T03:23:59;2.30;;;0.80;;
10430;SDS011;5262;59.958;17.726;2022-09-01T03:26:28;1.27;;;0.90;;
10430;SDS011;5262;59.958;17.726;2022-09-01T03:28:54;1.77;;;0.77;;
10430;SDS011;5262;59.958;17.726;2022-09-01T03:31:20;1.37;;;0.77;;
10430;SDS011;5262;59.958;17.726;2022-09-01T03:33:51;2.50;;;1.00;;
10430;SDS011;5262;59.958;17.726;2022-09-01T03:36:18;2.47;;;0.80;;
10430;SDS011;5262;59.958;17.726;2022-09-01T03:38:47;1.47;;;0.97;;
10430;SDS011;5262;59.958;17.726;2022-09-01T03:41:15;2.87;;;0.80;;
10430;SDS011;5262;59.958;17.726;2022-09-01T03:43:43;1.27;;;0.70;;
10430;SDS011;5262;59.958;17.726;2022-09-01T03:46:11;1.00;;;0.70;;
10430;SDS011;5262;59.958;17.726;2022-09-01T03:48:44;1.83;;;1.00;;
10430;SDS011;5262;59.958;17.726;2022-09-01T03:51:11;0.73;;;0.70;;
10430;SDS011;5262;59.958;17.726;2022-09-01T03:53:38;1.13;;;0.67;;
10430;SDS011;5262;59.958;17.726;2022-09-01T03:56:04;3.00;;;0.70;;
10430;SDS011;5262;59.958;17.726;2022-09-01T03:58:31;1.57;;;0.60;;
10430;SDS011;5262;59.958;17.726;2022-09-01T04:00:58;1.73;;;0.90;;
10430;SDS011;5262;59.958;17.726;2022-09-01T04:03:26;0.67;;;0.60;;
10430;SDS011;5262;59.958;17.726;2022-09-01T04:05:55;1.07;;;0.70;;
10430;SDS011;5262;59.958;17.726;2022-09-01T04:08:22;0.90;;;0.70;;
10430;SDS011;5262;59.958;17.726;2022-09-01T04:10:55;2.50;;;0.60;;
10430;SDS011;5262;59.958;17.726;2022-09-01T04:13:32;1.30;;;0.80;;
10430;SDS011;5262;59.958;17.726;2022-09-01T04:15:59;1.70;;;0.80;;
10430;SDS011;5262;59.958;17.726;2022-09-01T04:18:25;0.80;;;0.70;;
10430;SDS011;5262;59.958;17.726;2022-09-01T04:20:52;1.43;;;0.63;;
10430;SDS011;5262;59.958;17.726;2022-09-01T04:23:27;1.30;;;0.60;;
10430;SDS011;5262;59.958;17.726;2022-09-01T04:28:24;1.37;;;0.70;;
10430;SDS011;5262;59.958;17.726;2022-09-01T04:30:57;0.70;;;0.70;;
10430;SDS011;5262;59.958;17.726;2022-09-01T04:33:26;4.33;;;0.70;;
10430;SDS011;5262;59.958;17.726;2022-09-01T04:36:01;1.23;;;0.70;;
10430;SDS011;5262;59.958;17.726;2022-09-01T04:38:27;0.60;;;0.60;;
10430;SDS011;5262;59.958;17.726;2022-09-01T04:40:54;3.17;;;0.80;;
10430;SDS011;5262;59.958;17.726;2022-09-01T04:43:24;2.13;;;0.70;;
10430;SDS011;5262;59.958;17.726;2022-09-01T04:45:50;1.27;;;0.63;;
10430;SDS011;5262;59.958;17.726;2022-09-01T04:48:18;2.00;;;0.73;;
10430;SDS011;5262;59.958;17.726;2022-09-01T04:50:46;1.10;;;0.67;;
10430;SDS011;5262;59.958;17.726;2022-09-01T04:53:16;1.43;;;0.60;;
10430;SDS011;5262;59.958;17.726;2022-09-01T04:55:42;1.97;;;0.43;;
10430;SDS011;5262;59.958;17.726;2022-09-01T04:58:10;0.63;;;0.60;;
10430;SDS011;5262;59.958;17.726;2022-09-01T05:00:38;0.70;;;0.57;;
10430;SDS011;5262;59.958;17.726;2022-09-01T05:03:04;1.77;;;0.70;;
10430;SDS011;5262;59.958;17.726;2022-09-01T05:05:37;1.57;;;0.77;;
10430;SDS011;5262;59.958;17.726;2022-09-01T05:08:17;1.23;;;0.60;;
10430;SDS011;5262;59.958;17.726;2022-09-01T05:10:48;0.97;;;0.70;;
10430;SDS011;5262;59.958;17.726;2022-09-01T05:13:16;2.23;;;0.70;;
10430;SDS011;5262;59.958;17.726;2022-09-01T05:15:43;1.97;;;0.70;;
10430;SDS011;5262;59.958;17.726;2022-09-01T05:18:14;0.80;;;0.70;;
10430;SDS011;5262;59.958;17.726;2022-09-01T05:20:48;0.73;;;0.53;;
10430;SDS011;5262;59.958;17.726;2022-09-01T05:23:15;1.50;;;0.67;;
10430;SDS011;5262;59.958;17.726;2022-09-01T05:25:44;2.63;;;0.90;;
10430;SDS011;5262;59.958;17.726;2022-09-01T05:28:14;1.23;;;0.70;;
10430;SDS011;5262;59.958;17.726;2022-09-01T05:30:42;1.10;;;0.70;;
10430;SDS011;5262;59.958;17.726;2022-09-01T05:33:10;1.87;;;1.00;;
10430;SDS011;5262;59.958;17.726;2022-09-01T05:35:41;1.43;;;0.70;;
10430;SDS011;5262;59.958;17.726;2022-09-01T05:38:16;0.80;;;0.70;;
10430;SDS011;5262;59.958;17.726;2022-09-01T05:40:42;1.47;;;0.70;;
10430;SDS011;5262;59.958;17.726;2022-09-01T05:43:09;2.20;;;0.70;;
10430;SDS011;5262;59.958;17.726;2022-09-01T05:45:41;0.80;;;0.60;;
10430;SDS011;5262;59.958;17.726;2022-09-01T05:48:11;0.97;;;0.77;;
10430;SDS011;5262;59.958;17.726;2022-09-01T05:50:41;0.90;;;0.70;;
10430;SDS011;5262;59.958;17.726;2022-09-01T05:53:09;2.60;;;0.70;;
10430;SDS011;5262;59.958;17.726;2022-09-01T05:55:40;1.00;;;0.70;;
10430;SDS011;5262;59.958;17.726;2022-09-01T05:58:08;1.20;;;0.63;;
10430;SDS011;5262;59.958;17.726;2022-09-01T06:00:42;1.40;;;1.10;;
10430;SDS011;5262;59.958;17.726;2022-09-01T06:03:13;1.10;;;0.70;;
10430;SDS011;5262;59.958;17.726;2022-09-01T06:05:40;1.97;;;0.80;;
10430;SDS011;5262;59.958;17.726;2022-09-01T06:08:06;1.10;;;0.90;;
10430;SDS011;5262;59.958;17.726;2022-09-01T06:10:37;1.10;;;0.70;;
10430;SDS011;5262;59.958;17.726;2022-09-01T06:13:04;0.50;;;0.50;;
10430;SDS011;5262;59.958;17.726;2022-09-01T06:15:32;1.77;;;0.70;;
10430;SDS011;5262;59.958;17.726;2022-09-01T06:18:00;2.00;;;0.60;;
10430;SDS011;5262;59.958;17.726;2022-09-01T06:20:25;1.37;;;0.90;;
10430;SDS011;5262;59.958;17.726;2022-09-01T06:22:51;0.77;;;0.57;;
10430;SDS011;5262;59.958;17.726;2022-09-01T06:25:18;1.50;;;0.70;;
10430;SDS011;5262;59.958;17.726;2022-09-01T06:27:44;1.30;;;0.70;;
10430;SDS011;5262;59.958;17.726;2022-09-01T06:30:12;0.57;;;0.57;;
10430;SDS011;5262;59.958;17.726;2022-09-01T06:32:42;1.80;;;0.60;;
10430;SDS011;5262;59.958;17.726;2022-09-01T06:35:12;1.53;;;0.60;;
10430;SDS011;5262;59.958;17.726;2022-09-01T06:37:40;0.73;;;0.50;;
10430;SDS011;5262;59.958;17.726;2022-09-01T06:40:10;0.77;;;0.70;;
10430;SDS011;5262;59.958;17.726;2022-09-01T06:42:44;1.40;;;0.63;;
10430;SDS011;5262;59.958;17.726;2022-09-01T06:45:14;1.80;;;0.80;;
10430;SDS011;5262;59.958;17.726;2022-09-01T06:47:41;0.83;;;0.50;;
10430;SDS011;5262;59.958;17.726;2022-09-01T06:50:09;0.80;;;0.60;;
10430;SDS011;5262;59.958;17.726;2022-09-01T06:52:39;1.00;;;0.60;;
10430;SDS011;5262;59.958;17.726;2022-09-01T06:55:12;1.07;;;0.60;;
10430;SDS011;5262;59.958;17.726;2022-09-01T06:57:39;0.63;;;0.50;;
10430;SDS011;5262;59.958;17.726;2022-09-01T07:00:10;0.87;;;0.50;;
10430;SDS011;5262;59.958;17.726;2022-09-01T07:02:46;0.97;;;0.50;;
10430;SDS011;5262;59.958;17.726;2022-09-01T07:05:17;1.90;;;0.50;;
10430;SDS011;5262;59.958;17.726;2022-09-01T07:07:49;2.10;;;0.70;;
10430;SDS011;5262;59.958;17.726;2022-09-01T07:10:23;3.30;;;0.53;;
10430;SDS011;5262;59.958;17.726;2022-09-01T07:12:51;1.27;;;0.60;;
10430;SDS011;5262;59.958;17.726;2022-09-01T07:15:20;1.27;;;0.47;;
10430;SDS011;5262;59.958;17.726;2022-09-01T07:17:56;1.33;;;0.60;;
10430;SDS011;5262;59.958;17.726;2022-09-01T07:20:23;0.87;;;0.30;;
10430;SDS011;5262;59.958;17.726;2022-09-01T07:22:53;1.67;;;0.40;;
10430;SDS011;5262;59.958;17.726;2022-09-01T07:25:21;1.77;;;0.40;;
10430;SDS011;5262;59.958;17.726;2022-09-01T07:27:47;0.83;;;0.50;;
10430;SDS011;5262;59.958;17.726;2022-09-01T07:30:18;1.73;;;0.40;;
10430;SDS011;5262;59.958;17.726;2022-09-01T07:32:46;2.83;;;0.47;;
10430;SDS011;5262;59.958;17.726;2022-09-01T07:35:14;3.22;;;0.50;;
10430;SDS011;5262;59.958;17.726;2022-09-01T08:40:25;1.53;;;0.30;;
10430;SDS011;5262;59.958;17.726;2022-09-01T08:50:53;3.60;;;0.47;;
10430;SDS011;5262;59.958;17.726;2022-09-01T08:53:28;1.03;;;0.30;;
10430;SDS011;5262;59.958;17.726;2022-09-01T08:56:07;0.40;;;0.20;;
10430;SDS011;5262;59.958;17.726;2022-09-01T08:58:35;1.27;;;0.40;;
10430;SDS011;5262;59.958;17.726;2022-09-01T09:01:03;1.90;;;0.40;;
10430;SDS011;5262;59.958;17.726;2022-09-01T09:08:50;0.93;;;0.33;;
10430;SDS011;5262;59.958;17.726;2022-09-01T09:19:23;1.23;;;0.37;;
10430;SDS011;5262;59.958;17.726;2022-09-01T09:21:55;0.80;;;0.33;;
10430;SDS011;5262;59.958;17.726;2022-09-01T09:26:53;2.00;;;0.20;;
10430;SDS011;5262;59.958;17.726;2022-09-01T09:29:20;0.20;;;0.10;;
10430;SDS011;5262;59.958;17.726;2022-09-01T09:31:47;0.70;;;0.13;;
10430;SDS011;5262;59.958;17.726;2022-09-01T09:36:59;0.80;;;0.20;;
10430;SDS011;5262;59.958;17.726;2022-09-01T09:40:02;0.27;;;0.20;;
10430;SDS011;5262;59.958;17.726;2022-09-01T09:42:34;0.97;;;0.20;;
10430;SDS011;5262;59.958;17.726;2022-09-01T09:45:04;0.53;;;0.30;;
10430;SDS011;5262;59.958;17.726;2022-09-01T09:47:41;1.93;;;0.37;;
10430;SDS011;5262;59.958;17.726;2022-09-01T09:50:24;1.30;;;0.30;;
10430;SDS011;5262;59.958;17.726;2022-09-01T09:53:12;1.80;;;0.30;;
10430;SDS011;5262;59.958;17.726;2022-09-01T09:55:53;0.60;;;0.30;;
10430;SDS011;5262;59.958;17.726;2022-09-01T09:58:23;0.80;;;0.23;;
10430;SDS011;5262;59.958;17.726;2022-09-01T10:03:52;0.60;;;0.30;;
10430;SDS011;5262;59.958;17.726;2022-09-01T10:09:48;0.40;;;0.40;;
10430;SDS011;5262;59.958;17.726;2022-09-01T10:11:55;1.10;;;0.40;;
10430;SDS011;5262;59.958;17.726;2022-09-01T10:14:23;1.87;;;0.30;;
10430;SDS011;5262;59.958;17.726;2022-09-01T10:16:55;0.83;;;0.10;;
10430;SDS011;5262;59.958;17.726;2022-09-01T10:19:26;0.47;;;0.30;;
10430;SDS011;5262;59.958;17.726;2022-09-01T10:21:54;0.67;;;0.20;;
10430;SDS011;5262;59.958;17.726;2022-09-01T10:24:34;0.52;;;0.20;;
10430;SDS011;5262;59.958;17.726;2022-09-01T10:27:03;1.10;;;0.38;;
10430;SDS011;5262;59.958;17.726;2022-09-01T10:30:07;0.97;;;0.30;;
10430;SDS011;5262;59.958;17.726;2022-09-01T10:32:42;0.80;;;0.20;;
10430;SDS011;5262;59.958;17.726;2022-09-01T10:35:27;0.50;;;0.23;;
10430;SDS011;5262;59.958;17.726;2022-09-01T10:37:58;0.90;;;0.30;;
10430;SDS011;5262;59.958;17.726;2022-09-01T10:42:55;0.50;;;0.30;;
10430;SDS011;5262;59.958;17.726;2022-09-01T10:45:35;0.83;;;0.30;;
10430;SDS011;5262;59.958;17.726;2022-09-01T10:50:52;0.90;;;0.23;;
10430;SDS011;5262;59.958;17.726;2022-09-01T10:53:42;1.13;;;0.37;;
10430;SDS011;5262;59.958;17.726;2022-09-01T11:04:09;1.23;;;0.40;;
10430;SDS011;5262;59.958;17.726;2022-09-01T11:09:05;0.63;;;0.30;;
10430;SDS011;5262;59.958;17.726;2022-09-01T11:15:05;1.13;;;0.30;;
10430;SDS011;5262;59.958;17.726;2022-09-01T11:20:22;0.53;;;0.37;;
10430;SDS011;5262;59.958;17.726;2022-09-01T11:26:02;0.90;;;0.60;;
10430;SDS011;5262;59.958;17.726;2022-09-01T11:28:56;1.27;;;0.40;;
10430;SDS011;5262;59.958;17.726;2022-09-01T11:31:28;2.10;;;0.23;;
10430;SDS011;5262;59.958;17.726;2022-09-01T11:33:58;2.03;;;0.38;;
10430;SDS011;5262;59.958;17.726;2022-09-01T11:36:36;2.63;;;0.50;;
10430;SDS011;5262;59.958;17.726;2022-09-01T11:44:22;1.33;;;0.38;;
10430;SDS011;5262;59.958;17.726;2022-09-01T11:46:50;0.73;;;0.30;;
10430;SDS011;5262;59.958;17.726;2022-09-01T11:49:44;1.37;;;0.40;;
10430;SDS011;5262;59.958;17.726;2022-09-01T11:52:21;0.93;;;0.40;;
10430;SDS011;5262;59.958;17.726;2022-09-01T11:54:49;0.80;;;0.30;;
10430;SDS011;5262;59.958;17.726;2022-09-01T11:57:16;1.03;;;0.27;;
10430;SDS011;5262;59.958;17.726;2022-09-01T11:59:43;0.63;;;0.30;;
10430;SDS011;5262;59.958;17.726;2022-09-01T12:02:15;2.07;;;0.30;;
10430;SDS011;5262;59.958;17.726;2022-09-01T12:04:42;1.03;;;0.43;;
10430;SDS011;5262;59.958;17.726;2022-09-01T12:07:12;0.57;;;0.30;;
10430;SDS011;5262;59.958;17.726;2022-09-01T12:09:47;0.30;;;0.20;;
10430;SDS011;5262;59.958;17.726;2022-09-01T12:15:00;1.13;;;0.47;;
10430;SDS011;5262;59.958;17.726;2022-09-01T12:17:29;0.47;;;0.20;;
10430;SDS011;5262;59.958;17.726;2022-09-01T12:19:55;2.10;;;0.30;;
10430;SDS011;5262;59.958;17.726;2022-09-01T12:22:21;1.47;;;0.30;;
10430;SDS011;5262;59.958;17.726;2022-09-01T12:24:52;0.90;;;0.30;;
10430;SDS011;5262;59.958;17.726;2022-09-01T12:27:19;0.40;;;0.20;;
10430;SDS011;5262;59.958;17.726;2022-09-01T12:29:47;0.50;;;0.20;;
10430;SDS011;5262;59.958;17.726;2022-09-01T12:32:13;1.70;;;0.37;;
10430;SDS011;5262;59.958;17.726;2022-09-01T12:34:44;1.95;;;0.38;;
10430;SDS011;5262;59.958;17.726;2022-09-01T12:39:41;0.98;;;0.43;;
10430;SDS011;5262;59.958;17.726;2022-09-01T12:44:45;0.70;;;0.50;;
10430;SDS011;5262;59.958;17.726;2022-09-01T12:52:46;1.47;;;0.30;;
10430;SDS011;5262;59.958;17.726;2022-09-01T12:55:24;1.60;;;0.20;;
10430;SDS011;5262;59.958;17.726;2022-09-01T12:57:59;1.27;;;0.20;;
10430;SDS011;5262;59.958;17.726;2022-09-01T13:00:27;0.63;;;0.40;;
10430;SDS011;5262;59.958;17.726;2022-09-01T13:05:34;2.00;;;0.43;;
10430;SDS011;5262;59.958;17.726;2022-09-01T13:08:05;1.27;;;0.40;;
10430;SDS011;5262;59.958;17.726;2022-09-01T13:10:34;0.80;;;0.30;;
10430;SDS011;5262;59.958;17.726;2022-09-01T13:13:03;1.13;;;0.30;;
10430;SDS011;5262;59.958;17.726;2022-09-01T13:15:29;0.47;;;0.30;;
10430;SDS011;5262;59.958;17.726;2022-09-01T13:17:55;0.57;;;0.20;;
10430;SDS011;5262;59.958;17.726;2022-09-01T13:20:21;0.40;;;0.30;;
10430;SDS011;5262;59.958;17.726;2022-09-01T13:22:47;1.07;;;0.53;;
10430;SDS011;5262;59.958;17.726;2022-09-01T13:25:14;0.87;;;0.40;;
10430;SDS011;5262;59.958;17.726;2022-09-01T13:27:43;0.50;;;0.30;;
10430;SDS011;5262;59.958;17.726;2022-09-01T13:30:11;0.70;;;0.40;;
10430;SDS011;5262;59.958;17.726;2022-09-01T13:32:42;0.40;;;0.30;;
10430;SDS011;5262;59.958;17.726;2022-09-01T13:35:09;2.07;;;0.30;;
10430;SDS011;5262;59.958;17.726;2022-09-01T13:37:36;0.80;;;0.40;;
10430;SDS011;5262;59.958;17.726;2022-09-01T13:40:03;3.20;;;0.60;;
10430;SDS011;5262;59.958;17.726;2022-09-01T13:42:31;0.77;;;0.30;;
10430;SDS011;5262;59.958;17.726;2022-09-01T13:44:57;0.50;;;0.30;;
10430;SDS011;5262;59.958;17.726;2022-09-01T13:47:23;0.87;;;0.30;;
10430;SDS011;5262;59.958;17.726;2022-09-01T13:49:49;0.30;;;0.20;;
10430;SDS011;5262;59.958;17.726;2022-09-01T13:52:15;0.80;;;0.40;;
10430;SDS011;5262;59.958;17.726;2022-09-01T13:54:41;0.80;;;0.43;;
10430;SDS011;5262;59.958;17.726;2022-09-01T13:57:10;2.63;;;0.43;;
10430;SDS011;5262;59.958;17.726;2022-09-01T13:59:36;1.10;;;0.30;;
10430;SDS011;5262;59.958;17.726;2022-09-01T14:02:03;0.33;;;0.30;;
10430;SDS011;5262;59.958;17.726;2022-09-01T14:04:29;0.50;;;0.20;;
10430;SDS011;5262;59.958;17.726;2022-09-01T14:06:55;2.00;;;0.63;;
10430;SDS011;5262;59.958;17.726;2022-09-01T14:09:21;1.20;;;0.30;;
10430;SDS011;5262;59.958;17.726;2022-09-01T14:11:47;2.13;;;0.40;;
10430;SDS011;5262;59.958;17.726;2022-09-01T14:14:12;1.93;;;0.30;;
10430;SDS011;5262;59.958;17.726;2022-09-01T14:16:38;1.17;;;0.47;;
10430;SDS011;5262;59.958;17.726;2022-09-01T14:19:04;0.53;;;0.30;;
10430;SDS011;5262;59.958;17.726;2022-09-01T14:21:29;0.50;;;0.33;;
10430;SDS011;5262;59.958;17.726;2022-09-01T14:23:55;0.83;;;0.30;;
10430;SDS011;5262;59.958;17.726;2022-09-01T14:26:21;1.47;;;0.57;;
10430;SDS011;5262;59.958;17.726;2022-09-01T14:28:48;1.67;;;0.40;;
10430;SDS011;5262;59.958;17.726;2022-09-01T14:31:14;1.60;;;0.60;;
10430;SDS011;5262;59.958;17.726;2022-09-01T14:33:42;0.90;;;0.50;;
10430;SDS011;5262;59.958;17.726;2022-09-01T14:36:14;1.43;;;0.50;;
10430;SDS011;5262;59.958;17.726;2022-09-01T14:38:46;1.10;;;0.43;;
10430;SDS011;5262;59.958;17.726;2022-09-01T14:41:13;1.03;;;0.40;;
10430;SDS011;5262;59.958;17.726;2022-09-01T14:43:48;1.20;;;0.60;;
10430;SDS011;5262;59.958;17.726;2022-09-01T14:46:15;0.30;;;0.30;;
10430;SDS011;5262;59.958;17.726;2022-09-01T14:48:42;0.87;;;0.50;;
10430;SDS011;5262;59.958;17.726;2022-09-01T14:51:16;0.77;;;0.37;;
10430;SDS011;5262;59.958;17.726;2022-09-01T14:53:46;0.97;;;0.33;;
10430;SDS011;5262;59.958;17.726;2022-09-01T14:56:13;2.40;;;0.60;;
10430;SDS011;5262;59.958;17.726;2022-09-01T14:58:42;1.83;;;0.50;;
10430;SDS011;5262;59.958;17.726;2022-09-01T15:01:15;1.63;;;0.50;;
10430;SDS011;5262;59.958;17.726;2022-09-01T15:03:42;1.77;;;0.40;;
10430;SDS011;5262;59.958;17.726;2022-09-01T15:06:12;0.60;;;0.30;;
10430;SDS011;5262;59.958;17.726;2022-09-01T15:08:39;0.53;;;0.40;;
10430;SDS011;5262;59.958;17.726;2022-09-01T15:11:09;2.00;;;0.50;;
10430;SDS011;5262;59.958;17.726;2022-09-01T15:13:37;2.80;;;0.40;;
10430;SDS011;5262;59.958;17.726;2022-09-01T15:16:04;1.10;;;0.40;;
10430;SDS011;5262;59.958;17.726;2022-09-01T15:18:36;3.20;;;0.30;;
10430;SDS011;5262;59.958;17.726;2022-09-01T15:21:03;0.50;;;0.40;;
10430;SDS011;5262;59.958;17.726;2022-09-01T15:23:29;2.30;;;0.50;;
10430;SDS011;5262;59.958;17.726;2022-09-01T15:25:55;1.67;;;0.50;;
10430;SDS011;5262;59.958;17.726;2022-09-01T15:28:22;1.73;;;0.60;;
10430;SDS011;5262;59.958;17.726;2022-09-01T15:30:49;0.30;;;0.30;;
10430;SDS011;5262;59.958;17.726;2022-09-01T15:33:15;1.20;;;0.60;;
10430;SDS011;5262;59.958;17.726;2022-09-01T15:35:41;2.00;;;0.40;;
10430;SDS011;5262;59.958;17.726;2022-09-01T15:38:08;1.70;;;0.50;;
10430;SDS011;5262;59.958;17.726;2022-09-01T15:40:37;0.60;;;0.40;;
10430;SDS011;5262;59.958;17.726;2022-09-01T15:43:05;1.00;;;0.50;;
10430;SDS011;5262;59.958;17.726;2022-09-01T15:45:31;1.77;;;0.47;;
10430;SDS011;5262;59.958;17.726;2022-09-01T15:47:57;5.30;;;4.70;;
10430;SDS011;5262;59.958;17.726;2022-09-01T15:50:24;4.10;;;1.70;;
10430;SDS011;5262;59.958;17.726;2022-09-01T15:52:58;0.93;;;0.63;;
10430;SDS011;5262;59.958;17.726;2022-09-01T15:55:36;6.47;;;5.63;;
10430;SDS011;5262;59.958;17.726;2022-09-01T15:58:05;1.63;;;0.90;;
10430;SDS011;5262;59.958;17.726;2022-09-01T16:00:31;7.17;;;5.67;;
10430;SDS011;5262;59.958;17.726;2022-09-01T16:02:58;5.03;;;4.50;;
10430;SDS011;5262;59.958;17.726;2022-09-01T16:05:27;4.83;;;4.33;;
10430;SDS011;5262;59.958;17.726;2022-09-01T16:07:57;1.20;;;0.67;;
10430;SDS011;5262;59.958;17.726;2022-09-01T16:10:25;1.53;;;0.60;;
10430;SDS011;5262;59.958;17.726;2022-09-01T16:12:53;0.93;;;0.63;;
10430;SDS011;5262;59.958;17.726;2022-09-01T16:15:20;1.77;;;0.60;;
10430;SDS011;5262;59.958;17.726;2022-09-01T16:22:50;4.00;;;0.50;;
10430;SDS011;5262;59.958;17.726;2022-09-01T16:25:29;3.07;;;1.13;;
10430;SDS011;5262;59.958;17.726;2022-09-01T16:28:03;2.30;;;0.70;;
10430;SDS011;5262;59.958;17.726;2022-09-01T16:30:34;1.63;;;0.67;;
10430;SDS011;5262;59.958;17.726;2022-09-01T16:33:01;0.93;;;0.40;;
10430;SDS011;5262;59.958;17.726;2022-09-01T16:35:40;0.87;;;0.30;;
10430;SDS011;5262;59.958;17.726;2022-09-01T16:38:18;3.07;;;0.50;;
10430;SDS011;5262;59.958;17.726;2022-09-01T16:43:44;2.07;;;0.53;;
10430;SDS011;5262;59.958;17.726;2022-09-01T16:46:32;0.90;;;0.60;;
10430;SDS011;5262;59.958;17.726;2022-09-01T16:52:01;2.50;;;0.50;;
10430;SDS011;5262;59.958;17.726;2022-09-01T17:00:18;1.07;;;0.43;;
10430;SDS011;5262;59.958;17.726;2022-09-01T17:05:40;0.77;;;0.60;;
10430;SDS011;5262;59.958;17.726;2022-09-01T17:08:17;0.90;;;0.60;;
10430;SDS011;5262;59.958;17.726;2022-09-01T17:13:41;1.03;;;0.70;;
10430;SDS011;5262;59.958;17.726;2022-09-01T17:16:20;1.43;;;1.13;;
10430;SDS011;5262;59.958;17.726;2022-09-01T17:18:49;2.10;;;1.30;;
10430;SDS011;5262;59.958;17.726;2022-09-01T17:21:23;3.77;;;2.93;;
10430;SDS011;5262;59.958;17.726;2022-09-01T17:23:57;1.90;;;1.53;;
10430;SDS011;5262;59.958;17.726;2022-09-01T17:26:26;2.87;;;1.80;;
10430;SDS011;5262;59.958;17.726;2022-09-01T17:28:54;1.73;;;1.30;;
10430;SDS011;5262;59.958;17.726;2022-09-01T17:31:34;6.07;;;2.67;;
10430;SDS011;5262;59.958;17.726;2022-09-01T17:37:03;3.23;;;2.07;;
10430;SDS011;5262;59.958;17.726;2022-09-01T17:40:02;5.03;;;4.07;;
10430;SDS011;5262;59.958;17.726;2022-09-01T17:45:46;5.90;;;5.00;;
10430;SDS011;5262;59.958;17.726;2022-09-01T17:48:39;5.07;;;4.03;;
10430;SDS011;5262;59.958;17.726;2022-09-01T17:51:56;6.63;;;5.73;;
10430;SDS011;5262;59.958;17.726;2022-09-01T17:56:58;7.80;;;3.60;;
10430;SDS011;5262;59.958;17.726;2022-09-01T18:02:43;1.43;;;1.33;;
10430;SDS011;5262;59.958;17.726;2022-09-01T18:10:33;3.87;;;2.10;;
10430;SDS011;5262;59.958;17.726;2022-09-01T18:13:05;4.23;;;2.13;;